Terminal Aerodrome Forecast
Issued by NWS

Home | Current Version | Previous Version | Graphics & Text | Print | Product List | Glossary Off
Versions: 1 2 3 4 5 6 7 8 9 10 11 12 13 14 15 16 17 18 19 20 21 22 23 24 25 26 27 28 29 30

000
FTUS43 KDDC 271735
TAFHYS
TAF
KHYS 271735Z 2718/2818 11010KT P6SM OVC009
     FM272000 13010KT P6SM BKN015
     FM272200 14009KT P6SM VCTS BKN050CB
     FM280200 36015KT P6SM BKN050
     FM280500 34012KT P6SM BKN120=

USA.gov is the U.S. government's official web portal to all federal, state and local government web resources and services.